createdAt,value
2018-04-13T00:00:21.559Z,76.42
2018-04-13T00:01:21.549Z,76.81
2018-04-13T00:02:21.547Z,77.95
2018-04-13T00:03:21.535Z,79.52
2018-04-13T00:04:21.536Z,79.81
2018-04-13T00:05:21.524Z,80.76
2018-04-13T00:06:21.516Z,80.86
2018-04-13T00:07:21.509Z,81.24
2018-04-13T00:08:21.507Z,81.81
2018-04-13T00:09:21.493Z,83.04
2018-04-13T00:10:21.489Z,81.33
2018-04-13T00:11:21.491Z,81.71
2018-04-13T00:12:21.478Z,81.05
2018-04-13T00:13:21.477Z,81.90
2018-04-13T00:14:21.467Z,80.76
2018-04-13T00:15:21.465Z,80.10
2018-04-13T00:16:21.462Z,79.81
2018-04-13T00:17:21.457Z,80.38
2018-04-13T00:18:21.451Z,80.47
2018-04-13T00:19:21.442Z,81.43
2018-04-13T00:20:21.436Z,80.38
2018-04-13T00:21:21.424Z,80.57
2018-04-13T00:22:21.424Z,79.24
2018-04-13T00:23:21.419Z,79.33
2018-04-13T00:24:21.417Z,81.14
2018-04-13T00:25:21.401Z,82.76
2018-04-13T00:26:21.395Z,84.00
2018-04-13T00:27:21.405Z,84.56
2018-04-13T00:28:21.380Z,85.42
2018-04-13T00:29:21.378Z,85.52
2018-04-13T00:30:21.370Z,85.66
2018-04-13T00:31:21.356Z,86.80
2018-04-13T00:32:21.359Z,86.38
2018-04-13T00:33:21.352Z,86.33
2018-04-13T00:34:21.337Z,86.14
2018-04-13T00:35:21.335Z,86.43
2018-04-13T00:36:21.346Z,87.38
2018-04-13T00:37:21.324Z,87.28
2018-04-13T00:38:21.321Z,88.23
2018-04-13T00:39:21.319Z,88.52
2018-04-13T00:40:21.311Z,88.90
2018-04-13T00:41:21.292Z,87.85
2018-04-13T00:42:21.296Z,88.13
2018-04-13T00:43:21.298Z,87.76
2018-04-13T00:44:21.273Z,87.28
2018-04-13T00:45:21.277Z,87.09
2018-04-13T00:46:21.266Z,88.04
2018-04-13T00:47:21.271Z,88.23
2018-04-13T00:48:21.265Z,88.52
2018-04-13T00:49:21.251Z,89.09
2018-04-13T00:50:21.253Z,89.47
2018-04-13T00:51:21.237Z,89.09
2018-04-13T00:52:21.235Z,87.95
2018-04-13T00:53:21.230Z,88.42
2018-04-13T00:54:21.222Z,88.23
2018-04-13T00:55:21.217Z,87.95
2018-04-13T00:56:21.212Z,87.85
2018-04-13T00:57:21.203Z,88.04
2018-04-13T00:58:21.205Z,87.66
2018-04-13T00:59:21.177Z,87.09
2018-04-13T01:00:21.181Z,87.09
2018-04-13T01:01:21.160Z,86.90
2018-04-13T01:02:21.164Z,86.99
2018-04-13T01:03:21.160Z,88.33
2018-04-13T01:04:21.156Z,89.09
2018-04-13T01:05:21.191Z,89.75
2018-04-13T01:06:21.142Z,89.75
2018-04-13T01:07:21.141Z,89.28
2018-04-13T01:08:21.140Z,89.75
2018-04-13T01:09:21.123Z,89.18
2018-04-13T01:10:21.118Z,87.95
2018-04-13T01:11:21.101Z,87.85
2018-04-13T01:12:21.118Z,88.80
2018-04-13T01:13:21.100Z,89.47
2018-04-13T01:14:21.082Z,89.56
2018-04-13T01:15:21.087Z,89.47
2018-04-13T01:16:21.076Z,90.23
2018-04-13T01:17:21.068Z,90.33
2018-04-13T01:18:21.066Z,90.85
2018-04-13T01:19:21.057Z,90.56
2018-04-13T01:20:21.049Z,89.71
2018-04-13T01:21:21.045Z,88.76
2018-04-13T01:22:21.049Z,89.37
2018-04-13T01:23:21.036Z,89.09
2018-04-13T01:24:21.024Z,88.90
2018-04-13T01:25:21.016Z,88.61
2018-04-13T01:26:21.014Z,89.00
2018-04-13T01:27:21.015Z,89.09
2018-04-13T01:28:21.003Z,89.94
2018-04-13T01:29:21.002Z,89.85
2018-04-13T02:01:44.497Z,92.37
2018-04-13T02:02:44.460Z,92.56
2018-04-13T02:04:37.426Z,92.46
2018-04-13T02:05:37.394Z,92.66
2018-04-13T02:07:30.366Z,92.75
2018-04-13T02:08:30.344Z,92.61
2018-04-13T02:10:23.270Z,92.61
2018-04-13T02:11:23.285Z,92.90
2018-04-13T02:13:16.205Z,92.94
2018-04-13T02:14:16.188Z,92.85
2018-04-13T02:16:09.241Z,92.37
2018-04-13T02:17:09.197Z,92.66
2018-04-13T02:19:02.136Z,92.37
2018-04-13T02:20:02.107Z,92.94
2018-04-13T02:21:55.056Z,92.94
2018-04-13T02:22:55.036Z,92.37
2018-04-13T02:24:47.996Z,92.75
2018-04-13T02:25:47.953Z,93.08
2018-04-13T02:27:40.936Z,92.85
2018-04-13T02:28:40.913Z,92.61
2018-04-13T02:30:33.865Z,92.90
2018-04-13T02:31:33.815Z,92.80
2018-04-13T02:32:33.817Z,92.90
2018-04-13T02:33:33.804Z,92.99
2018-04-13T02:34:33.914Z,93.08
2018-04-13T02:35:33.785Z,91.75
2018-04-13T02:36:33.780Z,92.80
2018-04-13T02:37:33.777Z,92.71
2018-04-13T02:38:33.765Z,93.08
2018-04-13T02:39:33.758Z,93.08
2018-04-13T02:40:33.751Z,92.80
2018-04-13T02:41:33.741Z,92.23
2018-04-13T02:42:33.732Z,91.28
2018-04-13T02:43:33.726Z,91.85
2018-04-13T02:44:33.728Z,91.94
2018-04-13T02:45:33.724Z,91.94
2018-04-13T02:46:33.716Z,91.99
2018-04-13T02:47:33.721Z,91.52
2018-04-13T02:48:33.692Z,91.99
2018-04-13T02:49:33.681Z,91.14
2018-04-13T02:50:33.682Z,90.85
2018-04-13T02:51:33.671Z,91.24
2018-04-13T02:52:33.659Z,92.09
2018-04-13T02:53:33.674Z,92.66
2018-04-13T02:54:33.656Z,92.28
2018-04-13T02:55:33.645Z,92.47
2018-04-13T02:56:33.651Z,91.89
2018-04-13T02:57:33.630Z,93.04
2018-04-13T02:58:33.622Z,92.94
2018-04-13T02:59:33.627Z,91.80
2018-04-13T03:00:33.613Z,91.94
2018-04-13T03:01:33.595Z,92.13
2018-04-13T03:02:33.602Z,92.61
2018-04-13T03:03:33.585Z,92.13
2018-04-13T03:04:33.580Z,92.23
2018-04-13T03:05:33.579Z,92.13
2018-04-13T03:06:33.562Z,92.23
2018-04-13T03:07:33.594Z,92.04
2018-04-13T03:08:33.552Z,92.18
2018-04-13T03:09:33.543Z,91.99
2018-04-13T03:10:33.538Z,92.37
2018-04-13T03:11:33.549Z,91.52
2018-04-13T03:12:33.554Z,91.23
2018-04-13T03:13:33.532Z,90.85
2018-04-13T03:14:33.515Z,90.09
2018-04-13T03:15:33.509Z,90.00
2018-04-13T03:16:33.499Z,90.28
2018-04-13T03:17:33.491Z,90.37
2018-04-13T03:18:33.495Z,90.47
2018-04-13T03:19:33.478Z,89.90
2018-04-13T03:20:33.468Z,90.66
2018-04-13T03:21:33.459Z,91.52
2018-04-13T03:22:33.458Z,91.42
2018-04-13T03:23:33.445Z,90.47
2018-04-13T03:24:33.479Z,90.28
2018-04-13T03:25:33.447Z,90.66
2018-04-13T03:26:33.426Z,90.89
2018-04-13T03:27:33.431Z,90.28
2018-04-13T03:28:33.419Z,90.19
2018-04-13T03:29:33.410Z,90.37
2018-04-13T03:30:33.411Z,89.94
2018-04-13T03:31:33.424Z,89.80
2018-04-13T03:32:33.398Z,89.61
2018-04-13T03:33:33.385Z,90.09
2018-04-13T03:34:33.388Z,89.90
2018-04-13T03:35:33.371Z,88.95
2018-04-13T03:36:33.366Z,88.85
2018-04-13T03:37:33.365Z,88.42
2018-04-13T03:38:33.356Z,88.33
2018-04-13T03:39:33.352Z,88.13
2018-04-13T03:40:33.344Z,88.33
2018-04-13T03:41:33.342Z,88.52
2018-04-13T03:42:33.333Z,88.33
2018-04-13T03:43:33.337Z,87.28
2018-04-13T03:44:33.316Z,86.14
2018-04-13T03:45:33.308Z,85.28
2018-04-13T03:46:33.303Z,84.14
2018-04-13T03:47:33.297Z,83.90
2018-04-13T03:48:33.298Z,84.28
2018-04-13T03:49:33.292Z,83.71
2018-04-13T03:50:33.284Z,84.19
2018-04-13T03:51:33.281Z,83.23
2018-04-13T03:52:33.308Z,83.04
2018-04-13T03:53:33.326Z,83.81
2018-04-13T03:54:33.921Z,84.09
2018-04-13T03:55:33.329Z,84.85
2018-04-13T03:56:33.242Z,87.13
2018-04-13T03:57:33.247Z,88.75
2018-04-13T03:58:33.238Z,89.32
2018-04-13T03:59:33.221Z,90.18
2018-04-13T04:00:33.223Z,90.37
2018-04-13T04:01:33.217Z,90.84
2018-04-13T04:02:33.214Z,90.94
2018-04-13T04:03:33.208Z,91.08
2018-04-13T04:04:33.201Z,91.75
2018-04-13T04:05:33.197Z,91.66
2018-04-13T04:06:33.192Z,91.47
2018-04-13T04:07:33.189Z,91.66
2018-04-13T04:08:33.181Z,91.66
2018-04-13T04:09:33.168Z,91.85
2018-04-13T04:10:33.163Z,91.85
2018-04-13T04:11:33.171Z,91.47
2018-04-13T04:12:33.157Z,91.28
2018-04-13T04:13:33.155Z,92.36
2018-04-13T04:14:33.147Z,92.32
2018-04-13T04:15:33.135Z,91.56
2018-04-13T04:16:33.188Z,92.65
2018-04-13T04:17:33.132Z,89.51
2018-04-13T04:18:33.123Z,87.56
2018-04-13T04:19:33.124Z,84.42
2018-04-13T04:20:33.114Z,83.28
2018-04-13T04:21:33.112Z,82.14
2018-04-13T04:22:33.099Z,82.70
2018-04-13T04:23:33.098Z,82.70
2018-04-13T04:24:33.106Z,84.61
2018-04-13T04:25:33.077Z,84.13
2018-04-13T04:26:33.071Z,82.51
2018-04-13T04:27:33.084Z,81.56
2018-04-13T04:28:33.063Z,81.95
2018-04-13T04:29:33.051Z,82.51
2018-04-13T04:30:33.056Z,83.65
2018-04-13T04:31:33.048Z,84.33
2018-04-13T04:32:33.037Z,86.22
2018-04-13T04:33:33.036Z,87.18
2018-04-13T04:34:33.073Z,88.79
2018-04-13T04:35:33.029Z,89.94
2018-04-13T04:36:33.024Z,90.61
2018-04-13T04:37:33.022Z,91.08
2018-04-13T04:38:33.014Z,91.03
2018-04-13T04:39:33.008Z,90.37
2018-04-13T04:40:33.000Z,91.51
2018-04-13T04:41:32.988Z,91.51
2018-04-13T04:42:32.992Z,91.42
2018-04-13T04:43:32.985Z,91.89
2018-04-13T04:44:32.975Z,90.84
2018-04-13T04:45:33.002Z,91.61
2018-04-13T04:46:32.974Z,92.27
2018-04-13T04:47:32.969Z,91.61
2018-04-13T04:48:32.957Z,91.28
2018-04-13T04:49:32.947Z,91.66
2018-04-13T04:50:32.942Z,92.46
2018-04-13T04:51:32.937Z,91.61
2018-04-13T04:52:32.943Z,92.22
2018-04-13T04:53:32.930Z,91.94
2018-04-13T04:54:32.927Z,91.89
2018-04-13T04:55:32.912Z,91.89
2018-04-13T04:56:32.922Z,92.36
2018-04-13T04:57:32.913Z,91.94
2018-04-13T04:58:32.901Z,92.27
2018-04-13T04:59:32.911Z,92.27
2018-04-13T05:00:32.895Z,91.70
2018-04-13T05:01:32.878Z,91.51
2018-04-13T05:02:32.881Z,91.42
2018-04-13T05:03:32.880Z,91.51
2018-04-13T05:04:32.866Z,91.89
2018-04-13T05:05:32.883Z,91.51
2018-04-13T05:06:32.859Z,92.08
2018-04-13T05:07:32.857Z,91.99
2018-04-13T05:08:32.847Z,91.61
2018-04-13T05:09:32.937Z,91.32
2018-04-13T05:10:32.839Z,91.51
2018-04-13T05:11:32.828Z,91.42
2018-04-13T05:12:32.836Z,91.13
2018-04-13T05:13:32.849Z,91.70
2018-04-13T05:14:32.818Z,90.80
2018-04-13T05:15:32.813Z,90.61
2018-04-13T05:16:32.805Z,90.51
2018-04-13T05:17:32.802Z,90.80
2018-04-13T05:18:32.787Z,90.70
2018-04-13T05:19:32.789Z,90.61
2018-04-13T05:20:32.785Z,90.42
2018-04-13T05:21:32.798Z,90.70
2018-04-13T05:22:32.841Z,90.22
2018-04-13T05:23:32.768Z,89.75
2018-04-13T05:24:32.767Z,90.22
2018-04-13T05:25:32.757Z,90.22
2018-04-13T05:26:32.760Z,89.37
2018-04-13T05:27:32.743Z,89.75
2018-04-13T05:28:32.745Z,89.94
2018-04-13T05:29:32.761Z,90.22
2018-04-13T05:30:32.737Z,90.13
2018-04-13T05:31:32.727Z,90.51
2018-04-13T05:32:32.727Z,90.70
2018-04-13T05:33:32.728Z,90.89
2018-04-13T05:34:32.723Z,90.51
2018-04-13T05:35:32.720Z,90.51
2018-04-13T05:36:32.700Z,90.42
2018-04-13T05:37:32.705Z,90.70
2018-04-13T05:38:32.699Z,90.51
2018-04-13T05:39:32.710Z,90.99
2018-04-13T05:40:32.683Z,90.51
2018-04-13T05:41:32.682Z,90.42
2018-04-13T05:42:32.672Z,90.89
2018-04-13T05:43:32.686Z,90.70
2018-04-13T05:44:32.665Z,90.89
2018-04-13T05:45:32.656Z,91.17
2018-04-13T05:46:32.658Z,90.32
2018-04-13T05:47:32.656Z,91.17
2018-04-13T05:48:32.656Z,91.27
2018-04-13T05:49:32.638Z,91.17
2018-04-13T05:50:32.635Z,91.37
2018-04-13T05:51:32.629Z,91.37
2018-04-13T05:52:32.629Z,90.99
2018-04-13T05:53:32.623Z,91.08
2018-04-13T05:54:32.625Z,90.89
2018-04-13T05:55:32.611Z,91.56
2018-04-13T05:56:32.614Z,91.37
2018-04-13T05:57:32.603Z,91.46
2018-04-13T05:58:32.595Z,92.03
2018-04-13T05:59:32.609Z,92.41
2018-04-13T06:00:32.588Z,91.65
2018-04-13T06:01:32.592Z,91.65
2018-04-13T06:02:32.579Z,91.94
2018-04-13T06:03:32.583Z,91.46
2018-04-13T06:04:32.560Z,92.13
2018-04-13T06:05:32.565Z,92.13
2018-04-13T06:06:32.564Z,92.41
2018-04-13T06:07:32.559Z,91.94
2018-04-13T06:08:32.548Z,92.13
2018-04-13T06:09:32.537Z,92.60
2018-04-13T06:10:32.541Z,92.32
2018-04-13T06:11:32.542Z,92.32
2018-04-13T06:12:32.535Z,92.60
2018-04-13T06:13:32.575Z,91.65
2018-04-13T06:14:32.517Z,92.22
2018-04-13T06:15:32.524Z,91.94
2018-04-13T06:16:32.508Z,92.65
2018-04-13T06:17:32.515Z,92.55
2018-04-13T06:18:32.509Z,92.51
2018-04-13T06:19:32.496Z,92.36
2018-04-13T06:20:32.544Z,92.74
2018-04-13T06:21:32.490Z,92.36
2018-04-13T06:22:32.488Z,92.18
2018-04-13T06:23:32.485Z,92.46
2018-04-13T06:24:32.555Z,92.65
2018-04-13T06:25:32.474Z,92.27
2018-04-13T06:26:32.471Z,92.55
2018-04-13T06:27:32.465Z,92.36
2018-04-13T06:28:32.459Z,92.55
2018-04-13T06:29:32.490Z,92.55
2018-04-13T06:30:32.449Z,91.22
2018-04-13T06:31:32.447Z,92.18
2018-04-13T06:32:32.444Z,91.79
2018-04-13T06:33:32.459Z,93.13
2018-04-13T06:34:32.434Z,91.99
2018-04-13T06:35:32.441Z,92.46
2018-04-13T06:36:32.434Z,92.03
2018-04-13T06:37:32.426Z,92.32
2018-04-13T06:38:32.429Z,91.94
2018-04-13T06:39:32.408Z,92.60
2018-04-13T06:40:32.424Z,92.60
2018-04-13T06:41:32.413Z,91.94
2018-04-13T06:42:32.406Z,91.65
2018-04-13T06:43:32.401Z,92.60
2018-04-13T06:44:32.402Z,92.13
2018-04-13T06:45:32.391Z,92.89
2018-04-13T06:46:32.405Z,92.03
2018-04-13T06:47:32.387Z,92.08
2018-04-13T06:48:32.392Z,92.55
2018-04-13T06:49:32.384Z,91.79
2018-04-13T06:50:32.378Z,92.46
2018-04-13T06:51:32.428Z,92.55
2018-04-13T06:52:32.387Z,91.94
2018-04-13T06:53:32.361Z,92.74
2018-04-13T06:54:32.381Z,91.69
2018-04-13T06:55:32.386Z,91.98
2018-04-13T06:56:32.365Z,91.69
2018-04-13T06:57:32.358Z,92.93
2018-04-13T06:58:32.363Z,91.79
2018-04-13T06:59:32.347Z,92.46
2018-04-13T07:00:32.357Z,92.03
2018-04-13T07:01:32.350Z,91.93
2018-04-13T07:02:32.385Z,92.08
2018-04-13T07:03:32.348Z,92.08
2018-04-13T07:04:32.334Z,91.74
2018-04-13T07:05:32.343Z,92.74
2018-04-13T07:06:32.334Z,91.60
2018-04-13T07:07:32.338Z,91.55
2018-04-13T07:08:32.338Z,92.69
2018-04-13T07:09:32.327Z,91.17
2018-04-13T07:10:32.331Z,91.55
2018-04-13T07:11:32.322Z,92.03
2018-04-13T07:12:32.330Z,92.32
2018-04-13T07:13:32.324Z,92.03
2018-04-13T07:14:32.324Z,91.83
2018-04-13T07:15:32.324Z,91.93
2018-04-13T07:16:32.316Z,92.12
2018-04-13T07:17:32.317Z,92.22
2018-04-13T07:18:32.311Z,92.83
2018-04-13T07:19:32.301Z,92.55
2018-04-13T07:20:32.311Z,92.41
2018-04-13T07:21:32.300Z,91.83
2018-04-13T07:22:32.290Z,91.93
2018-04-13T07:23:32.296Z,92.64
2018-04-13T07:24:32.286Z,92.36
2018-04-13T07:25:32.295Z,91.93
2018-04-13T07:26:32.294Z,91.45
2018-04-13T07:27:32.287Z,90.87
2018-04-13T07:28:32.291Z,88.43
2018-04-13T07:29:32.290Z,84.68
2018-04-13T07:30:32.306Z,82.09
2018-04-13T07:31:32.285Z,79.64
2018-04-13T07:32:32.286Z,75.56
2018-04-13T07:33:32.289Z,73.80
2018-04-13T07:34:32.301Z,74.27
2018-04-13T07:35:32.298Z,70.67
2018-04-13T07:36:32.282Z,71.15
2018-04-13T07:37:32.302Z,70.80
2018-04-13T07:38:32.414Z,67.92
2018-04-13T07:39:32.314Z,66.03
2018-04-13T07:40:32.309Z,63.67
2018-04-13T07:41:32.315Z,64.47
2018-04-13T07:42:32.325Z,63.12
2018-04-13T07:43:32.339Z,63.64
2018-04-13T07:44:32.336Z,65.05
2018-04-13T07:45:32.350Z,65.23
2018-04-13T07:46:32.459Z,65.23
2018-04-13T07:47:32.363Z,66.77
2018-04-13T07:48:32.387Z,66.03
2018-04-13T07:49:32.386Z,64.18
2018-04-13T07:50:32.391Z,64.79
2018-04-13T07:51:32.403Z,63.19
2018-04-13T07:52:32.413Z,61.46
2018-04-13T07:53:32.424Z,61.08
2018-04-13T07:54:32.423Z,61.81
2018-04-13T07:55:32.444Z,62.19
2018-04-13T07:56:32.449Z,61.55
2018-04-13T07:57:32.460Z,61.84
2018-04-13T07:58:32.987Z,61.36
2018-04-13T07:59:32.484Z,59.66
2018-04-13T08:00:32.499Z,59.89
2018-04-13T08:01:32.511Z,59.99
2018-04-13T08:02:32.512Z,58.89
2018-04-13T08:03:32.528Z,60.05
2018-04-13T08:04:32.537Z,60.82
2018-04-13T08:05:32.564Z,60.02
2018-04-13T08:06:32.561Z,60.66
2018-04-13T08:07:32.572Z,60.78
2018-04-13T08:08:32.594Z,61.40
2018-04-13T08:09:32.596Z,60.88
2018-04-13T08:10:32.607Z,60.85
2018-04-13T08:11:32.633Z,58.92
2018-04-13T08:12:32.651Z,57.51
2018-04-13T08:13:32.639Z,58.37
2018-04-13T08:14:32.643Z,57.25
2018-04-13T08:15:32.672Z,56.45
2018-04-13T08:16:32.676Z,56.26
2018-04-13T08:17:32.688Z,56.36
2018-04-13T08:18:32.701Z,56.45
2018-04-13T08:19:32.709Z,55.52
2018-04-13T08:20:32.726Z,55.65
2018-04-13T08:21:32.738Z,54.75
2018-04-13T08:22:32.752Z,54.78
2018-04-13T08:23:32.800Z,53.91
2018-04-13T08:24:32.782Z,53.88
2018-04-13T08:25:32.790Z,55.13
2018-04-13T08:26:32.799Z,55.81
2018-04-13T08:27:32.815Z,54.75
2018-04-13T08:28:32.827Z,54.82
2018-04-13T08:29:32.834Z,56.74
2018-04-13T08:30:32.858Z,56.04
2018-04-13T08:31:32.884Z,57.00
2018-04-13T08:32:32.887Z,58.09
2018-04-13T08:33:32.897Z,56.51
2018-04-13T08:34:32.899Z,55.45
2018-04-13T08:35:32.971Z,54.63
2018-04-13T08:36:32.939Z,56.45
2018-04-13T08:37:32.948Z,55.88
2018-04-13T08:38:32.970Z,55.40
2018-04-13T08:39:32.973Z,55.59
2018-04-13T08:40:32.999Z,55.35
2018-04-13T08:41:33.001Z,54.13
2018-04-13T08:42:33.025Z,53.58
2018-04-13T08:43:33.100Z,51.75
2018-04-13T08:44:33.047Z,52.13
2018-04-13T08:45:33.079Z,51.94
2018-04-13T08:46:33.078Z,53.19
2018-04-13T08:47:33.099Z,53.29
2018-04-13T08:48:33.140Z,52.73
2018-04-13T08:49:33.124Z,51.75
2018-04-13T08:50:33.135Z,53.84
2018-04-13T08:51:33.173Z,53.69
2018-04-13T08:52:33.162Z,55.94
2018-04-13T08:53:33.178Z,57.39
2018-04-13T08:54:33.183Z,57.60
2018-04-13T08:55:33.206Z,56.29
2018-04-13T08:56:33.227Z,55.81
2018-04-13T08:57:33.241Z,55.62
2018-04-13T08:58:33.255Z,56.00
2018-04-13T08:59:33.276Z,55.90
2018-04-13T09:00:33.285Z,56.04
2018-04-13T09:01:33.292Z,57.32
2018-04-13T09:02:33.309Z,56.77
2018-04-13T09:03:33.328Z,56.29
2018-04-13T09:04:33.351Z,55.62
2018-04-13T09:05:33.353Z,54.42
2018-04-13T09:06:33.394Z,53.19
2018-04-13T09:07:33.387Z,51.84
2018-04-13T09:08:33.392Z,51.68
2018-04-13T09:09:33.419Z,51.97
2018-04-13T09:10:33.452Z,50.62
2018-04-13T09:11:33.430Z,51.36
2018-04-13T09:12:33.456Z,50.69
2018-04-13T09:13:33.466Z,52.69
2018-04-13T09:14:33.498Z,52.04
2018-04-13T09:15:33.505Z,51.56
2018-04-13T09:16:33.527Z,51.26
2018-04-13T09:17:33.535Z,50.52
2018-04-13T09:18:33.560Z,50.40
2018-04-13T09:19:33.552Z,50.93
2018-04-13T09:20:33.583Z,51.07
2018-04-13T09:21:33.595Z,50.88
2018-04-13T09:22:33.668Z,51.48
2018-04-13T09:23:33.619Z,50.76
2018-04-13T09:24:33.721Z,49.37
2018-04-13T09:25:33.656Z,48.54
2018-04-13T09:26:33.676Z,48.03
2018-04-13T09:27:33.716Z,49.32
2018-04-13T09:28:33.698Z,48.44
2018-04-13T09:29:33.714Z,49.19
2018-04-13T09:30:33.760Z,49.82
2018-04-13T09:31:33.750Z,51.29
2018-04-13T09:32:33.768Z,50.54
2018-04-13T09:33:33.792Z,49.70
2018-04-13T09:34:33.794Z,49.10
2018-04-13T09:35:33.816Z,49.96
2018-04-13T09:36:33.843Z,48.54
2018-04-13T09:37:33.846Z,47.41
2018-04-13T09:38:33.867Z,48.37
2018-04-13T09:39:33.871Z,48.69
2018-04-13T09:40:33.895Z,48.23
2018-04-13T09:41:33.915Z,47.38
2018-04-13T09:42:33.939Z,45.91
2018-04-13T09:43:33.944Z,46.80
2018-04-13T09:44:33.953Z,45.74
2018-04-13T09:45:33.993Z,46.22
2018-04-13T09:46:34.001Z,46.49
2018-04-13T09:47:34.019Z,45.62
2018-04-13T09:48:34.046Z,46.30
2018-04-13T09:49:34.050Z,45.64
2018-04-13T09:50:34.071Z,45.08
2018-04-13T09:51:34.085Z,44.79
2018-04-13T09:52:34.099Z,44.23
2018-04-13T09:53:34.125Z,43.27
2018-04-13T09:54:34.131Z,44.23
2018-04-13T09:55:34.151Z,43.82
2018-04-13T09:56:34.171Z,43.80
2018-04-13T09:57:34.191Z,44.77
2018-04-13T09:58:34.206Z,45.33
2018-04-13T09:59:34.231Z,46.70
2018-04-13T10:00:34.271Z,45.54
2018-04-13T10:01:34.273Z,44.21
2018-04-13T10:02:34.286Z,44.98
2018-04-13T10:03:34.289Z,44.12
2018-04-13T10:04:34.315Z,45.37
2018-04-13T10:05:34.356Z,45.10
2018-04-13T10:06:34.360Z,45.64
2018-04-13T10:07:34.365Z,45.28
2018-04-13T10:08:34.385Z,44.19
2018-04-13T10:09:34.428Z,44.75
2018-04-13T10:10:34.443Z,46.75
2018-04-13T10:11:34.446Z,46.58
2018-04-13T10:12:34.469Z,45.86
2018-04-13T10:13:34.465Z,45.81
2018-04-13T10:14:34.507Z,47.36
2018-04-13T10:15:34.525Z,47.05
2018-04-13T10:16:34.529Z,45.50
2018-04-13T10:17:34.542Z,45.42
2018-04-13T10:18:34.561Z,45.28
2018-04-13T10:19:34.581Z,46.95
2018-04-13T10:20:34.595Z,46.23
2018-04-13T10:21:34.608Z,47.14
2018-04-13T10:22:34.626Z,45.23
2018-04-13T10:23:34.645Z,45.06
2018-04-13T10:24:34.741Z,45.54
2018-04-13T10:25:34.669Z,45.72
2018-04-13T10:26:34.699Z,45.54
2018-04-13T10:27:34.710Z,45.51
2018-04-13T10:28:34.740Z,45.28
2018-04-13T10:29:34.762Z,45.37
2018-04-13T10:30:34.762Z,44.29
2018-04-13T10:31:34.771Z,44.02
2018-04-13T10:32:34.792Z,44.77
2018-04-13T10:33:34.807Z,43.44
2018-04-13T10:34:34.838Z,43.82
2018-04-13T10:35:34.844Z,43.95
2018-04-13T10:36:34.868Z,43.95
2018-04-13T10:37:34.890Z,44.94
2018-04-13T10:38:34.927Z,45.04
2018-04-13T10:39:34.895Z,44.77
2018-04-13T10:40:34.929Z,44.26
2018-04-13T10:41:34.946Z,45.08
2018-04-13T10:42:34.954Z,44.53
2018-04-13T10:43:34.981Z,44.37
2018-04-13T10:44:35.004Z,42.46
2018-04-13T10:45:35.023Z,42.67
2018-04-13T10:46:35.029Z,42.61
2018-04-13T10:47:35.045Z,42.75
2018-04-13T10:48:35.067Z,42.22
2018-04-13T10:49:35.086Z,43.27
2018-04-13T10:50:35.106Z,43.68
2018-04-13T10:51:35.127Z,43.07
2018-04-13T10:52:35.140Z,42.96
2018-04-13T10:53:35.167Z,42.47
2018-04-13T10:54:35.176Z,42.82
2018-04-13T10:55:35.208Z,43.20
2018-04-13T10:56:35.216Z,43.88
2018-04-13T10:57:35.235Z,42.96
2018-04-13T10:58:35.254Z,44.56
2018-04-13T10:59:35.267Z,42.83
2018-04-13T11:00:35.292Z,43.13
2018-04-13T11:01:35.309Z,43.04
2018-04-13T11:02:35.333Z,43.84
2018-04-13T11:03:35.351Z,44.51
2018-04-13T11:04:35.384Z,44.38
2018-04-13T11:05:35.388Z,44.57
2018-04-13T11:06:35.412Z,42.93
2018-04-13T11:07:35.429Z,43.49
2018-04-13T11:08:35.438Z,43.13
2018-04-13T11:09:35.459Z,42.52
2018-04-13T11:10:35.468Z,41.70
2018-04-13T11:11:35.504Z,42.71
2018-04-13T11:12:35.526Z,42.75
2018-04-13T11:13:35.542Z,40.34
2018-04-13T11:14:35.546Z,39.06
2018-04-13T11:15:35.576Z,39.94
2018-04-13T11:16:35.607Z,39.76
2018-04-13T11:17:35.607Z,40.25
2018-04-13T11:18:35.633Z,39.16
2018-04-13T11:19:35.647Z,39.32
2018-04-13T11:20:35.669Z,40.71
2018-04-13T11:21:35.690Z,41.11
2018-04-13T11:22:35.712Z,40.96
2018-04-13T11:23:35.728Z,41.83
2018-04-13T11:24:35.742Z,42.39
2018-04-13T11:25:35.768Z,43.52
2018-04-13T11:26:35.782Z,44.43
2018-04-13T11:27:35.795Z,43.47
2018-04-13T11:28:35.815Z,43.33
2018-04-13T11:29:35.836Z,43.52
2018-04-13T11:30:35.853Z,43.37
2018-04-13T11:31:35.894Z,43.03
2018-04-13T11:32:35.905Z,41.79
2018-04-13T11:33:35.969Z,41.45
2018-04-13T11:34:35.928Z,41.33
2018-04-13T11:35:35.962Z,42.52
2018-04-13T11:36:35.970Z,43.30
2018-04-13T11:37:36.003Z,42.55
2018-04-13T11:38:36.004Z,41.41
2018-04-13T11:39:36.029Z,41.70
2018-04-13T11:40:36.048Z,41.50
2018-04-13T11:41:36.075Z,41.14
2018-04-13T11:42:36.077Z,39.80
2018-04-13T11:43:36.090Z,41.14
2018-04-13T11:44:36.115Z,40.75
2018-04-13T11:45:36.125Z,40.07
2018-04-13T11:46:36.151Z,39.80
2018-04-13T11:47:36.173Z,41.14
2018-04-13T11:48:36.183Z,41.19
2018-04-13T11:49:36.201Z,42.93
2018-04-13T11:50:36.227Z,42.10
2018-04-13T11:51:36.233Z,41.64
2018-04-13T11:52:36.255Z,40.21
2018-04-13T11:53:36.262Z,39.06
2018-04-13T11:54:36.288Z,38.96
2018-04-13T11:55:36.310Z,40.05
2018-04-13T11:56:36.321Z,38.89
2018-04-13T11:57:36.341Z,39.01
2018-04-13T11:58:36.371Z,38.79
2018-04-13T11:59:36.381Z,37.43
2018-04-13T12:00:36.406Z,36.36
2018-04-13T12:01:36.414Z,37.61
2018-04-13T12:02:36.429Z,38.50
2018-04-13T12:03:36.457Z,38.32
2018-04-13T12:04:36.473Z,36.32
2018-04-13T12:05:36.493Z,36.83
2018-04-13T12:06:36.509Z,37.41
2018-04-13T12:07:36.532Z,37.70
2018-04-13T12:08:36.555Z,36.81
2018-04-13T12:09:36.578Z,37.65
2018-04-13T12:10:36.584Z,37.32
2018-04-13T12:11:36.599Z,37.74
2018-04-13T12:12:36.635Z,37.26
2018-04-13T12:13:36.666Z,38.27
2018-04-13T12:14:36.676Z,40.44
2018-04-13T12:15:36.698Z,42.00
2018-04-13T12:16:36.714Z,41.88
2018-04-13T12:17:36.738Z,39.28
2018-04-13T12:18:36.750Z,37.81
2018-04-13T12:19:36.770Z,37.87
2018-04-13T12:20:36.794Z,38.81
2018-04-13T12:21:36.805Z,40.05
2018-04-13T12:22:36.837Z,41.94
2018-04-13T12:23:36.851Z,43.57
2018-04-13T12:24:36.916Z,44.80
2018-04-13T12:25:36.906Z,44.87
2018-04-13T12:26:36.908Z,44.78
2018-04-13T12:27:36.930Z,45.65
2018-04-13T12:28:36.937Z,47.58
2018-04-13T12:29:36.954Z,46.20
2018-04-13T12:30:36.986Z,46.40
2018-04-13T12:31:36.996Z,48.47
2018-04-13T12:32:36.995Z,47.99
2018-04-13T12:33:37.013Z,48.74
2018-04-13T12:34:37.039Z,47.87
2018-04-13T12:35:37.040Z,47.49
2018-04-13T12:36:37.050Z,48.54
2018-04-13T12:37:37.058Z,47.70
2018-04-13T12:38:37.070Z,47.31
2018-04-13T12:39:37.099Z,46.55
2018-04-13T12:40:37.104Z,50.90
2018-04-13T12:41:37.107Z,54.83
2018-04-13T12:42:37.105Z,57.81
2018-04-13T12:43:37.125Z,59.22
2018-04-13T12:44:37.125Z,60.44
2018-04-13T12:45:37.142Z,60.53
2018-04-13T12:46:37.146Z,64.15
2018-04-13T12:47:37.162Z,65.39
2018-04-13T12:48:37.156Z,64.76
2018-04-13T12:49:37.182Z,64.76
2018-04-13T12:50:37.184Z,64.18
2018-04-13T12:51:37.199Z,64.18
2018-04-13T12:52:37.242Z,66.80
2018-04-13T12:53:37.288Z,63.79
2018-04-13T12:54:37.421Z,63.00
2018-04-13T12:55:37.235Z,63.99
2018-04-13T12:56:37.328Z,65.14
2018-04-13T12:57:37.224Z,64.76
2018-04-13T12:58:37.223Z,63.19
2018-04-13T12:59:37.217Z,67.05
2018-04-13T13:00:37.243Z,67.05
2018-04-13T13:01:37.236Z,67.72
2018-04-13T13:02:37.249Z,69.35
2018-04-13T13:03:37.246Z,69.60
2018-04-13T13:04:37.249Z,69.54
2018-04-13T13:05:37.268Z,70.37
2018-04-13T13:06:37.260Z,72.48
2018-04-13T13:07:37.257Z,72.96
2018-04-13T13:08:37.264Z,73.72
2018-04-13T13:09:37.277Z,74.58
2018-04-13T13:10:37.266Z,75.48
2018-04-13T13:11:37.274Z,74.33
2018-04-13T13:12:37.273Z,74.43
2018-04-13T13:13:37.285Z,75.48
2018-04-13T13:14:37.278Z,74.82
2018-04-13T13:15:37.316Z,73.38
2018-04-13T13:16:37.298Z,72.77
2018-04-13T13:17:37.288Z,72.77
2018-04-13T13:18:37.286Z,77.33
2018-04-13T13:19:37.288Z,79.52
2018-04-13T13:20:37.295Z,79.05
2018-04-13T13:21:37.300Z,78.76
2018-04-13T13:22:37.303Z,77.75
2018-04-13T13:23:37.287Z,79.33
2018-04-13T13:24:37.293Z,80.19
2018-04-13T13:25:37.281Z,79.62
2018-04-13T13:26:37.295Z,79.08
2018-04-13T13:27:37.293Z,78.38
2018-04-13T13:28:37.284Z,80.00
2018-04-13T13:29:37.288Z,80.24
2018-04-13T13:30:37.294Z,80.04
2018-04-13T13:31:37.372Z,80.90
2018-04-13T13:32:37.287Z,79.95